Time;durP1;ratioP1;P1;durP2;ratioP2;P2;SDS_P1;SDS_P2;PMS_P1;PMS_P2;Temp;Humidity;BMP_temperature;BMP_pressure;BME280_temperature;BME280_humidity;BME280_pressure;Samples;Min_cycle;Max_cycle;Signal;HPM_P1;HPM_P2
2023/02/16 00:01:33;;;;;;;4.85;1.30;;;;;;;;;;4938990;28;20504;-61
2023/02/16 00:04:00;;;;;;;4.55;1.35;;;;;;;;;;4941638;28;20187;-66
2023/02/16 00:06:27;;;;;;;13.77;1.83;;;;;;;;;;4944554;28;20082;-62
2023/02/16 00:08:55;;;;;;;11.90;2.85;;;;;;;;;;4942422;28;20522;-64
2023/02/16 00:14:11;;;;;;;6.07;1.20;;;;;;;;;;4943529;28;20131;-62
2023/02/16 00:16:38;;;;;;;6.13;1.30;;;;;;;;;;4945645;28;20077;-63
2023/02/16 00:19:25;;;;;;;8.38;1.30;;;;;;;;;;4950644;28;20122;-62
2023/02/16 00:21:53;;;;;;;3.90;1.20;;;;;;;;;;4960385;28;20042;-63
2023/02/16 00:24:20;;;;;;;4.55;1.40;;;;;;;;;;4995450;28;20041;-65
2023/02/16 00:26:47;;;;;;;4.00;1.35;;;;;;;;;;5010283;28;20518;-62
2023/02/16 00:29:34;;;;;;;7.38;1.38;;;;;;;;;;5013891;28;20038;-62
2023/02/16 00:32:01;;;;;;;7.78;1.65;;;;;;;;;;5002347;28;20537;-62
2023/02/16 00:34:42;;;;;;;5.75;1.63;;;;;;;;;;4983270;28;20045;-62
2023/02/16 00:37:10;;;;;;;9.15;1.60;;;;;;;;;;4982787;28;20042;-64
2023/02/16 00:39:37;;;;;;;8.82;1.63;;;;;;;;;;5001528;28;20046;-63
2023/02/16 00:42:05;;;;;;;4.40;1.35;;;;;;;;;;5006124;28;20110;-63
2023/02/16 00:44:37;;;;;;;10.23;1.63;;;;;;;;;;5005598;28;21762;-62
2023/02/16 00:47:11;;;;;;;6.93;1.65;;;;;;;;;;5007234;28;20088;-62
2023/02/16 00:49:38;;;;;;;8.93;1.90;;;;;;;;;;4988537;28;20042;-63
2023/02/16 00:52:16;;;;;;;9.75;1.98;;;;;;;;;;5004690;28;20489;-62
2023/02/16 00:54:43;;;;;;;12.82;1.92;;;;;;;;;;5004737;28;20069;-62
2023/02/16 00:57:29;;;;;;;8.13;2.65;;;;;;;;;;5012903;28;20046;-63
2023/02/16 01:00:15;;;;;;;4.53;1.63;;;;;;;;;;5001975;28;20245;-63
2023/02/16 01:02:43;;;;;;;5.53;1.70;;;;;;;;;;5005093;28;20550;-63
2023/02/16 01:05:09;;;;;;;8.98;1.83;;;;;;;;;;5004883;28;20224;-64
2023/02/16 01:13:28;;;;;;;8.05;1.50;;;;;;;;;;4988492;28;20624;-66
2023/02/16 01:15:55;;;;;;;8.43;1.40;;;;;;;;;;4971425;28;20050;-62
2023/02/16 01:18:22;;;;;;;11.77;2.25;;;;;;;;;;4985365;28;20521;-64
2023/02/16 01:20:49;;;;;;;14.40;2.38;;;;;;;;;;4978975;28;20049;-65
2023/02/16 01:23:16;;;;;;;12.75;2.00;;;;;;;;;;4987001;28;20129;-62
2023/02/16 01:25:43;;;;;;;14.63;2.10;;;;;;;;;;4985634;28;20033;-64
2023/02/16 01:28:23;;;;;;;9.35;1.73;;;;;;;;;;4987493;28;20046;-65
2023/02/16 01:30:51;;;;;;;5.95;1.75;;;;;;;;;;4960303;28;20769;-64
2023/02/16 01:33:18;;;;;;;10.02;1.83;;;;;;;;;;4966943;28;20566;-63
2023/02/16 01:35:45;;;;;;;13.43;1.90;;;;;;;;;;4984516;28;20046;-64
2023/02/16 01:38:17;;;;;;;8.80;2.25;;;;;;;;;;4987158;28;20094;-62
2023/02/16 01:40:57;;;;;;;7.03;1.95;;;;;;;;;;4963270;28;20117;-63
2023/02/16 01:43:30;;;;;;;11.68;1.77;;;;;;;;;;4965962;28;20189;-65
2023/02/16 01:46:01;;;;;;;15.57;1.70;;;;;;;;;;4968213;28;20748;-64
2023/02/16 01:48:30;;;;;;;9.77;2.40;;;;;;;;;;4966840;28;20058;-62
2023/02/16 01:51:16;;;;;;;18.73;3.25;;;;;;;;;;4994524;28;20069;-63
2023/02/16 01:53:47;;;;;;;11.68;2.33;;;;;;;;;;4988767;28;20115;-65
2023/02/16 01:56:29;;;;;;;11.13;2.75;;;;;;;;;;5000493;28;20045;-64
2023/02/16 01:58:58;;;;;;;9.93;2.13;;;;;;;;;;5010063;28;20069;-64
2023/02/16 02:01:27;;;;;;;8.40;2.53;;;;;;;;;;4992006;28;20037;-64
2023/02/16 02:06:39;;;;;;;14.23;2.80;;;;;;;;;;5008322;28;21894;-63
2023/02/16 02:09:26;;;;;;;14.10;2.20;;;;;;;;;;5011074;28;20116;-64
2023/02/16 02:11:56;;;;;;;17.58;4.07;;;;;;;;;;5019570;28;20054;-64
2023/02/16 02:14:33;;;;;;;8.05;2.47;;;;;;;;;;5009102;28;20042;-65
2023/02/16 02:17:03;;;;;;;13.45;3.42;;;;;;;;;;5007452;28;20563;-64
2023/02/16 02:19:31;;;;;;;16.17;2.75;;;;;;;;;;5007821;28;20033;-64
2023/02/16 02:24:55;;;;;;;9.10;2.13;;;;;;;;;;5005718;28;20069;-67
2023/02/16 02:27:32;;;;;;;9.02;2.20;;;;;;;;;;5005747;28;20128;-66
2023/02/16 02:30:08;;;;;;;13.98;2.13;;;;;;;;;;4989246;28;20056;-64
2023/02/16 02:32:35;;;;;;;23.08;2.38;;;;;;;;;;5005054;28;20065;-66
2023/02/16 02:35:01;;;;;;;9.50;1.90;;;;;;;;;;5007201;28;20720;-65
2023/02/16 02:37:28;;;;;;;11.60;2.03;;;;;;;;;;5005929;28;20069;-63
2023/02/16 02:40:07;;;;;;;13.45;2.25;;;;;;;;;;5007378;28;20042;-65
2023/02/16 02:42:41;;;;;;;12.68;2.33;;;;;;;;;;5006873;28;20479;-65
2023/02/16 02:45:11;;;;;;;6.50;2.17;;;;;;;;;;5006663;28;20048;-64
2023/02/16 02:47:39;;;;;;;8.18;2.38;;;;;;;;;;5005720;28;20057;-66
2023/02/16 02:51:32;;;;;;;7.10;2.10;;;;;;;;;;4988934;28;20046;-65
2023/02/16 02:53:33;;;;;;;6.60;2.17;;;;;;;;;;4931693;28;20071;-65
2023/02/16 03:00:39;;;;;;;11.55;2.17;;;;;;;;;;4988015;28;20032;-64
2023/02/16 03:01:38;;;;;;;6.05;2.08;;;;;;;;;;5005798;28;21057;-64
2023/02/16 03:04:06;;;;;;;11.77;2.08;;;;;;;;;;5006330;28;20121;-64
2023/02/16 03:06:40;;;;;;;10.02;2.10;;;;;;;;;;5006390;28;20475;-65
2023/02/16 03:09:13;;;;;;;11.20;2.05;;;;;;;;;;5005615;28;20129;-66
2023/02/16 03:14:36;;;;;;;8.40;2.50;;;;;;;;;;5007092;28;20071;-67
2023/02/16 03:30:56;;;;;;;10.10;2.10;;;;;;;;;;5005551;28;20064;-63
2023/02/16 03:33:23;;;;;;;18.48;2.90;;;;;;;;;;5004696;28;20044;-67
2023/02/16 03:35:50;;;;;;;16.40;2.60;;;;;;;;;;5005491;28;21426;-65
2023/02/16 03:38:17;;;;;;;8.48;2.88;;;;;;;;;;5008985;28;20050;-65
2023/02/16 03:40:45;;;;;;;10.73;2.60;;;;;;;;;;5006595;28;20463;-66
2023/02/16 03:43:11;;;;;;;7.68;2.45;;;;;;;;;;5004752;28;20041;-66
2023/02/16 03:45:39;;;;;;;12.68;2.90;;;;;;;;;;4988707;28;20071;-65
2023/02/16 03:48:06;;;;;;;7.38;2.20;;;;;;;;;;5003994;28;20053;-63
2023/02/16 03:50:33;;;;;;;19.67;3.20;;;;;;;;;;5005383;28;20143;-66
2023/02/16 03:53:06;;;;;;;7.03;2.55;;;;;;;;;;5006770;28;20050;-63
2023/02/16 03:55:34;;;;;;;9.80;2.55;;;;;;;;;;5004328;28;20528;-64
2023/02/16 03:58:00;;;;;;;8.73;2.75;;;;;;;;;;5008976;28;20174;-63
2023/02/16 04:00:28;;;;;;;14.75;2.88;;;;;;;;;;5006818;28;20046;-62
2023/02/16 04:02:54;;;;;;;7.13;2.53;;;;;;;;;;5007129;28;20046;-64
2023/02/16 04:05:21;;;;;;;10.35;2.42;;;;;;;;;;5006890;28;20038;-64
2023/02/16 04:07:48;;;;;;;9.27;2.85;;;;;;;;;;5004772;28;20052;-64
2023/02/16 04:10:14;;;;;;;10.60;2.95;;;;;;;;;;5005601;28;20148;-64
2023/02/16 04:12:41;;;;;;;14.23;3.80;;;;;;;;;;5004672;28;20073;-65
2023/02/16 04:15:09;;;;;;;11.50;3.28;;;;;;;;;;5006062;28;20045;-62
2023/02/16 04:17:36;;;;;;;16.55;3.67;;;;;;;;;;4988559;28;20560;-64
2023/02/16 04:20:03;;;;;;;9.07;3.20;;;;;;;;;;5005924;28;20435;-65
2023/02/16 04:22:29;;;;;;;11.57;3.10;;;;;;;;;;5002063;28;20042;-64
2023/02/16 04:24:56;;;;;;;14.38;3.35;;;;;;;;;;5004284;28;20189;-64
2023/02/16 04:27:23;;;;;;;11.70;3.15;;;;;;;;;;5006018;28;20045;-64
2023/02/16 04:29:49;;;;;;;9.50;2.47;;;;;;;;;;5004575;28;20033;-64
2023/02/16 04:32:16;;;;;;;10.50;3.15;;;;;;;;;;5009831;28;20049;-63
2023/02/16 04:34:43;;;;;;;10.18;2.70;;;;;;;;;;5008438;28;20823;-64
2023/02/16 04:37:09;;;;;;;9.93;2.92;;;;;;;;;;5009973;28;20371;-64
2023/02/16 04:39:36;;;;;;;7.97;2.53;;;;;;;;;;5008575;28;20144;-64
2023/02/16 04:42:03;;;;;;;14.40;3.88;;;;;;;;;;5009738;28;20069;-64
2023/02/16 04:44:30;;;;;;;12.20;3.15;;;;;;;;;;5009005;28;20052;-64
2023/02/16 04:46:57;;;;;;;7.93;2.55;;;;;;;;;;5010090;28;20037;-64
2023/02/16 04:49:23;;;;;;;13.55;3.20;;;;;;;;;;5009961;28;20475;-64
2023/02/16 04:51:50;;;;;;;8.18;2.53;;;;;;;;;;5008761;28;20100;-64
2023/02/16 04:54:17;;;;;;;9.48;2.50;;;;;;;;;;5009095;28;20108;-64
2023/02/16 04:56:44;;;;;;;8.30;2.45;;;;;;;;;;5016972;28;20057;-64
2023/02/16 04:59:11;;;;;;;17.10;2.75;;;;;;;;;;5017542;28;20030;-64
2023/02/16 05:01:37;;;;;;;14.35;2.58;;;;;;;;;;5007579;28;20937;-64
2023/02/16 05:04:04;;;;;;;9.88;2.45;;;;;;;;;;5008306;28;20038;-65
2023/02/16 05:06:31;;;;;;;5.80;2.00;;;;;;;;;;5008090;28;20104;-64
2023/02/16 05:08:57;;;;;;;10.32;2.55;;;;;;;;;;5009132;28;20150;-64
2023/02/16 05:17:02;;;;;;;15.13;2.75;;;;;;;;;;5008254;28;20609;-63
2023/02/16 05:19:28;;;;;;;10.02;2.53;;;;;;;;;;5006923;28;20034;-63
2023/02/16 05:21:55;;;;;;;8.55;2.95;;;;;;;;;;5008260;28;20045;-63
2023/02/16 05:24:21;;;;;;;16.50;2.90;;;;;;;;;;5008759;28;20732;-63
2023/02/16 05:26:48;;;;;;;5.93;2.50;;;;;;;;;;5010737;28;20084;-63
2023/02/16 05:29:15;;;;;;;13.05;2.90;;;;;;;;;;5010271;28;20045;-64
2023/02/16 05:31:41;;;;;;;6.75;3.00;;;;;;;;;;5011854;28;20075;-63
2023/02/16 05:34:08;;;;;;;14.18;3.55;;;;;;;;;;5010739;28;20042;-63
2023/02/16 05:36:35;;;;;;;7.60;2.58;;;;;;;;;;4992280;28;20502;-63
2023/02/16 05:39:01;;;;;;;8.38;3.28;;;;;;;;;;5010248;28;20041;-62
2023/02/16 05:41:28;;;;;;;9.60;2.90;;;;;;;;;;5008106;28;20061;-62
2023/02/16 05:43:59;;;;;;;14.07;2.97;;;;;;;;;;5007071;28;20060;-63
2023/02/16 05:46:27;;;;;;;14.32;3.80;;;;;;;;;;5009532;28;20033;-63
2023/02/16 05:48:54;;;;;;;24.33;4.28;;;;;;;;;;5009121;28;20054;-62
2023/02/16 05:51:21;;;;;;;28.27;4.75;;;;;;;;;;5010824;28;20537;-62
2023/02/16 05:53:48;;;;;;;9.07;3.20;;;;;;;;;;5020681;28;20512;-62
2023/02/16 05:56:15;;;;;;;8.48;2.95;;;;;;;;;;5013135;28;20581;-62
2023/02/16 05:58:41;;;;;;;10.02;2.80;;;;;;;;;;5010392;28;20038;-63
2023/02/16 06:01:08;;;;;;;12.93;3.03;;;;;;;;;;5012452;28;20161;-62
2023/02/16 06:03:35;;;;;;;8.52;3.42;;;;;;;;;;5006976;28;20033;-63
2023/02/16 06:06:02;;;;;;;13.05;3.03;;;;;;;;;;5006583;28;20064;-62
2023/02/16 06:08:29;;;;;;;13.48;3.38;;;;;;;;;;5008442;28;20052;-63
2023/02/16 06:10:56;;;;;;;14.05;3.80;;;;;;;;;;5007893;28;20029;-62
2023/02/16 06:13:23;;;;;;;11.65;2.97;;;;;;;;;;5006759;28;20493;-63
2023/02/16 06:15:54;;;;;;;11.50;3.55;;;;;;;;;;5007205;28;20030;-62
2023/02/16 06:18:21;;;;;;;8.55;3.22;;;;;;;;;;5006934;28;20038;-63
2023/02/16 06:20:48;;;;;;;16.38;3.28;;;;;;;;;;5006896;28;20577;-64
2023/02/16 06:23:15;;;;;;;13.02;3.60;;;;;;;;;;5006411;28;20557;-63
2023/02/16 06:25:42;;;;;;;12.15;3.72;;;;;;;;;;5007522;28;20392;-64
2023/02/16 06:28:09;;;;;;;12.55;3.38;;;;;;;;;;5006408;28;20456;-63
2023/02/16 06:30:36;;;;;;;11.32;2.95;;;;;;;;;;5007405;28;20077;-63
2023/02/16 06:33:03;;;;;;;14.25;3.75;;;;;;;;;;5006191;28;20050;-64
2023/02/16 06:35:30;;;;;;;12.63;4.00;;;;;;;;;;5006999;28;20450;-64
2023/02/16 06:37:58;;;;;;;15.38;3.50;;;;;;;;;;5008759;28;21306;-63
2023/02/16 06:40:24;;;;;;;11.77;3.25;;;;;;;;;;5008030;28;20073;-64
2023/02/16 06:42:51;;;;;;;9.80;2.75;;;;;;;;;;5015593;28;20053;-65
2023/02/16 06:45:18;;;;;;;14.88;3.22;;;;;;;;;;5015736;28;20475;-65
2023/02/16 06:47:45;;;;;;;10.27;2.67;;;;;;;;;;5007157;28;20041;-65
2023/02/16 06:50:13;;;;;;;14.80;3.25;;;;;;;;;;5007520;28;20038;-65
2023/02/16 06:52:40;;;;;;;13.50;3.30;;;;;;;;;;5005210;28;20058;-64
2023/02/16 06:55:06;;;;;;;15.93;3.70;;;;;;;;;;5007186;28;20061;-64
2023/02/16 06:57:33;;;;;;;17.52;3.65;;;;;;;;;;5014433;28;20060;-64
2023/02/16 07:00:00;;;;;;;19.25;3.58;;;;;;;;;;5009773;28;20052;-64
2023/02/16 07:02:26;;;;;;;13.52;3.55;;;;;;;;;;5007218;28;20077;-64
2023/02/16 07:04:53;;;;;;;13.63;3.17;;;;;;;;;;5007793;28;20040;-65
2023/02/16 07:07:20;;;;;;;11.70;3.75;;;;;;;;;;5005619;28;20065;-65
2023/02/16 07:09:46;;;;;;;27.70;5.05;;;;;;;;;;5008421;28;20049;-64
2023/02/16 07:12:13;;;;;;;12.07;4.10;;;;;;;;;;5006372;28;20073;-64
2023/02/16 07:14:39;;;;;;;14.57;3.85;;;;;;;;;;5004698;28;20042;-64
2023/02/16 07:17:06;;;;;;;18.95;3.53;;;;;;;;;;5007694;28;20103;-63
2023/02/16 07:19:33;;;;;;;12.25;3.85;;;;;;;;;;5007580;28;20430;-63
2023/02/16 07:22:00;;;;;;;14.23;3.45;;;;;;;;;;5011756;28;20057;-63
2023/02/16 07:24:27;;;;;;;11.00;3.92;;;;;;;;;;5016059;28;20037;-64
2023/02/16 07:26:54;;;;;;;16.77;3.92;;;;;;;;;;5008613;28;20899;-64
2023/02/16 07:29:21;;;;;;;11.30;3.40;;;;;;;;;;5006548;28;20034;-64
2023/02/16 07:31:49;;;;;;;21.35;3.45;;;;;;;;;;5010339;28;20045;-64
2023/02/16 07:34:16;;;;;;;10.43;3.40;;;;;;;;;;5006621;28;20057;-64
2023/02/16 07:36:43;;;;;;;8.68;2.88;;;;;;;;;;5005978;28;20095;-64
2023/02/16 07:39:11;;;;;;;6.03;2.50;;;;;;;;;;5006400;28;20057;-65
2023/02/16 07:41:37;;;;;;;7.60;2.42;;;;;;;;;;5005444;28;20120;-65
2023/02/16 07:44:04;;;;;;;12.15;2.65;;;;;;;;;;5004714;28;20046;-65
2023/02/16 07:46:31;;;;;;;10.85;2.30;;;;;;;;;;5007556;28;20125;-65
2023/02/16 07:48:58;;;;;;;19.40;2.60;;;;;;;;;;5004264;28;20052;-65
2023/02/16 07:51:25;;;;;;;17.95;2.88;;;;;;;;;;5003659;28;20464;-64
2023/02/16 07:53:52;;;;;;;8.20;2.78;;;;;;;;;;5005678;28;20069;-65
2023/02/16 07:56:23;;;;;;;7.57;2.40;;;;;;;;;;5004656;28;20401;-66
2023/02/16 07:58:53;;;;;;;13.38;2.95;;;;;;;;;;5006733;28;20478;-66
2023/02/16 08:01:20;;;;;;;8.70;2.83;;;;;;;;;;5005694;28;20045;-66
2023/02/16 08:03:46;;;;;;;5.28;2.17;;;;;;;;;;5006437;28;20065;-66
2023/02/16 08:06:13;;;;;;;16.67;2.92;;;;;;;;;;5006534;28;20156;-64
2023/02/16 08:08:40;;;;;;;13.00;2.10;;;;;;;;;;5008123;28;20045;-64
2023/02/16 08:11:11;;;;;;;9.13;1.80;;;;;;;;;;5008068;28;20099;-64
2023/02/16 08:13:38;;;;;;;14.57;2.75;;;;;;;;;;5005058;28;20052;-64
2023/02/16 08:16:08;;;;;;;14.68;2.08;;;;;;;;;;5007552;28;20041;-64
2023/02/16 08:18:34;;;;;;;7.95;2.13;;;;;;;;;;5005630;28;20053;-64
2023/02/16 08:21:17;;;;;;;10.82;2.58;;;;;;;;;;5006218;28;20637;-64
2023/02/16 08:23:48;;;;;;;10.38;2.88;;;;;;;;;;5016959;28;20084;-64
2023/02/16 08:26:16;;;;;;;5.70;2.22;;;;;;;;;;5010667;28;20084;-65
2023/02/16 08:28:46;;;;;;;13.63;2.90;;;;;;;;;;5004757;28;20050;-64
2023/02/16 08:31:13;;;;;;;13.65;3.78;;;;;;;;;;5005632;28;20533;-65
2023/02/16 08:33:40;;;;;;;8.85;2.78;;;;;;;;;;5004512;28;20045;-64
2023/02/16 08:36:09;;;;;;;6.07;2.53;;;;;;;;;;4987070;28;20091;-64
2023/02/16 08:38:36;;;;;;;12.25;3.15;;;;;;;;;;5004708;28;20521;-65
2023/02/16 08:41:02;;;;;;;12.35;2.75;;;;;;;;;;4991808;28;20160;-64
2023/02/16 08:43:29;;;;;;;11.50;2.72;;;;;;;;;;5004676;28;20034;-65
2023/02/16 08:45:56;;;;;;;11.50;3.22;;;;;;;;;;5007359;28;20379;-64
2023/02/16 08:48:22;;;;;;;12.13;2.83;;;;;;;;;;5004536;28;20088;-65
2023/02/16 08:50:55;;;;;;;15.57;2.85;;;;;;;;;;4991506;28;20049;-64
2023/02/16 08:53:22;;;;;;;13.25;3.30;;;;;;;;;;5003324;28;20070;-64
2023/02/16 08:55:56;;;;;;;11.07;3.08;;;;;;;;;;5007087;28;20079;-63
2023/02/16 08:58:23;;;;;;;5.93;2.30;;;;;;;;;;5004295;28;20118;-65
2023/02/16 09:00:50;;;;;;;9.32;2.45;;;;;;;;;;5004323;28;20098;-64
2023/02/16 09:03:20;;;;;;;6.80;2.30;;;;;;;;;;5004995;28;20148;-65
2023/02/16 09:05:47;;;;;;;10.68;2.40;;;;;;;;;;5005476;28;20086;-65
2023/02/16 09:08:14;;;;;;;6.38;2.75;;;;;;;;;;5004350;28;20042;-64
2023/02/16 09:10:41;;;;;;;8.23;3.00;;;;;;;;;;5004764;28;20121;-65
2023/02/16 09:13:13;;;;;;;8.45;2.20;;;;;;;;;;5004952;28;20116;-65
2023/02/16 09:15:41;;;;;;;8.50;2.40;;;;;;;;;;5005614;28;20042;-65
2023/02/16 09:18:08;;;;;;;7.15;2.05;;;;;;;;;;5007645;28;20104;-65
2023/02/16 09:20:40;;;;;;;15.57;2.47;;;;;;;;;;5009375;28;20038;-66
2023/02/16 09:23:07;;;;;;;5.05;1.92;;;;;;;;;;5008853;28;20056;-65
2023/02/16 09:25:37;;;;;;;5.43;2.03;;;;;;;;;;5007976;28;20828;-64
2023/02/16 09:28:05;;;;;;;5.78;1.95;;;;;;;;;;5008818;28;20545;-65
2023/02/16 09:30:33;;;;;;;14.65;2.20;;;;;;;;;;5008938;28;20748;-65
2023/02/16 09:33:00;;;;;;;9.30;1.80;;;;;;;;;;5008020;28;20060;-64
2023/02/16 09:35:26;;;;;;;19.92;2.08;;;;;;;;;;5008489;28;20045;-64
2023/02/16 09:37:53;;;;;;;4.15;1.80;;;;;;;;;;5009186;28;20515;-65
2023/02/16 09:40:20;;;;;;;6.63;1.92;;;;;;;;;;5008706;28;20128;-65
2023/02/16 09:42:55;;;;;;;4.50;1.58;;;;;;;;;;5008019;28;20096;-65
2023/02/16 09:45:23;;;;;;;9.32;1.45;;;;;;;;;;5008002;28;20756;-65
2023/02/16 09:47:53;;;;;;;12.57;1.48;;;;;;;;;;5009725;28;20037;-65
2023/02/16 09:50:22;;;;;;;9.45;1.90;;;;;;;;;;5009600;28;20399;-65
2023/02/16 09:52:55;;;;;;;6.18;1.83;;;;;;;;;;5009119;28;21014;-65
2023/02/16 09:55:23;;;;;;;2.92;1.10;;;;;;;;;;4995416;28;20049;-65
2023/02/16 09:57:56;;;;;;;4.65;1.10;;;;;;;;;;5011409;28;20043;-64
2023/02/16 10:00:26;;;;;;;3.17;1.13;;;;;;;;;;5008061;28;20077;-64
2023/02/16 10:03:00;;;;;;;4.38;1.55;;;;;;;;;;5009991;28;20100;-64
2023/02/16 10:05:50;;;;;;;5.65;1.77;;;;;;;;;;5008800;28;20041;-64
2023/02/16 10:08:28;;;;;;;6.78;1.50;;;;;;;;;;5007052;28;20124;-63
2023/02/16 10:11:04;;;;;;;7.22;1.45;;;;;;;;;;5006764;28;20049;-63
2023/02/16 10:13:45;;;;;;;5.20;1.77;;;;;;;;;;5006364;28;20060;-64
2023/02/16 10:16:16;;;;;;;11.80;1.73;;;;;;;;;;5008293;28;20037;-64
2023/02/16 10:18:45;;;;;;;5.00;1.50;;;;;;;;;;5006519;28;20131;-63
2023/02/16 10:21:17;;;;;;;9.07;1.38;;;;;;;;;;5007549;28;20096;-64
2023/02/16 10:23:46;;;;;;;4.25;1.17;;;;;;;;;;5006490;28;20527;-64
2023/02/16 10:26:13;;;;;;;4.97;1.50;;;;;;;;;;5007278;28;20045;-64
2023/02/16 10:28:47;;;;;;;3.78;1.27;;;;;;;;;;5006405;28;20049;-63
2023/02/16 10:31:13;;;;;;;8.60;1.35;;;;;;;;;;5007547;28;20763;-63
2023/02/16 10:33:45;;;;;;;3.63;1.15;;;;;;;;;;5005038;28;20061;-64
2023/02/16 10:36:21;;;;;;;6.25;1.48;;;;;;;;;;5006479;28;20450;-63
2023/02/16 10:39:00;;;;;;;9.63;1.48;;;;;;;;;;5006265;28;20040;-64
2023/02/16 10:41:35;;;;;;;4.28;1.40;;;;;;;;;;5006427;28;20156;-63
2023/02/16 10:44:06;;;;;;;2.97;0.98;;;;;;;;;;5007105;28;20046;-64
2023/02/16 10:46:38;;;;;;;5.25;1.33;;;;;;;;;;5008141;28;20057;-64
2023/02/16 10:49:05;;;;;;;4.25;1.42;;;;;;;;;;5008137;28;20054;-64
2023/02/16 10:51:33;;;;;;;4.78;1.30;;;;;;;;;;5006844;28;20042;-64
2023/02/16 10:54:20;;;;;;;10.05;1.70;;;;;;;;;;5007374;28;21709;-63
2023/02/16 10:56:51;;;;;;;7.78;1.80;;;;;;;;;;5007279;28;20118;-63
2023/02/16 10:59:25;;;;;;;6.60;1.33;;;;;;;;;;5016091;28;20405;-63
2023/02/16 11:01:59;;;;;;;3.95;1.15;;;;;;;;;;5007440;28;20030;-63
2023/02/16 11:04:40;;;;;;;3.75;1.30;;;;;;;;;;5006920;28;20205;-65
2023/02/16 11:07:13;;;;;;;6.10;1.38;;;;;;;;;;5007271;28;20049;-63
2023/02/16 11:09:40;;;;;;;3.17;1.10;;;;;;;;;;5006299;28;20207;-63
2023/02/16 11:12:16;;;;;;;4.20;1.58;;;;;;;;;;5006829;28;20100;-63
2023/02/16 11:14:49;;;;;;;8.48;1.33;;;;;;;;;;5016535;28;20037;-63
2023/02/16 11:17:16;;;;;;;4.75;0.75;;;;;;;;;;5011486;28;20220;-63
2023/02/16 11:19:51;;;;;;;4.63;1.23;;;;;;;;;;5006573;28;20045;-62
2023/02/16 11:22:44;;;;;;;4.13;1.33;;;;;;;;;;5006363;28;20468;-63
2023/02/16 11:25:13;;;;;;;5.80;1.60;;;;;;;;;;5016988;28;20103;-61
2023/02/16 11:27:50;;;;;;;15.93;1.25;;;;;;;;;;5008653;28;20034;-63
2023/02/16 11:30:22;;;;;;;5.00;1.15;;;;;;;;;;5014337;28;21685;-64
2023/02/16 11:32:50;;;;;;;6.20;1.50;;;;;;;;;;5013349;28;20040;-63
2023/02/16 11:35:17;;;;;;;8.40;1.58;;;;;;;;;;5007973;28;20041;-63
2023/02/16 11:37:44;;;;;;;3.30;1.08;;;;;;;;;;5005468;28;20403;-63
2023/02/16 11:40:23;;;;;;;3.00;1.02;;;;;;;;;;5007117;28;20041;-63
2023/02/16 11:42:57;;;;;;;3.80;1.15;;;;;;;;;;5006269;28;20045;-64
2023/02/16 11:45:29;;;;;;;2.80;0.98;;;;;;;;;;5007118;28;20038;-62
2023/02/16 11:48:06;;;;;;;3.72;1.25;;;;;;;;;;5006755;28;20811;-63
2023/02/16 11:50:34;;;;;;;3.22;1.08;;;;;;;;;;5006483;28;20049;-64
2023/02/16 11:53:10;;;;;;;4.35;1.40;;;;;;;;;;5005739;28;20056;-65
2023/02/16 11:55:37;;;;;;;4.07;1.55;;;;;;;;;;5007620;28;20046;-63
2023/02/16 11:58:24;;;;;;;9.30;1.65;;;;;;;;;;5005243;28;20092;-63
2023/02/16 12:00:53;;;;;;;10.63;1.50;;;;;;;;;;5007086;28;20052;-63
2023/02/16 12:03:29;;;;;;;6.13;0.80;;;;;;;;;;5006169;28;20041;-66
2023/02/16 12:06:02;;;;;;;3.08;0.88;;;;;;;;;;5004935;28;20038;-63
2023/02/16 12:08:54;;;;;;;7.70;0.90;;;;;;;;;;5004718;28;20042;-63
2023/02/16 12:11:27;;;;;;;8.68;1.00;;;;;;;;;;5006176;28;20071;-64
2023/02/16 12:14:05;;;;;;;3.30;1.00;;;;;;;;;;5004198;28;20041;-65
2023/02/16 12:16:55;;;;;;;5.82;0.82;;;;;;;;;;5021638;28;20093;-63
2023/02/16 12:19:33;;;;;;;3.75;0.98;;;;;;;;;;5004327;28;20084;-63
2023/02/16 12:22:15;;;;;;;6.95;1.17;;;;;;;;;;5005289;28;20073;-64
2023/02/16 12:25:00;;;;;;;7.97;0.88;;;;;;;;;;5005869;28;20072;-66
2023/02/16 12:27:34;;;;;;;5.38;1.05;;;;;;;;;;5005297;28;20048;-63
2023/02/16 12:30:08;;;;;;;4.63;0.90;;;;;;;;;;5006381;28;20486;-63
2023/02/16 12:32:36;;;;;;;3.33;0.77;;;;;;;;;;5004463;28;20086;-64
2023/02/16 12:35:12;;;;;;;4.65;0.90;;;;;;;;;;5005720;28;20490;-64
2023/02/16 12:37:45;;;;;;;6.72;1.30;;;;;;;;;;5004994;28;20107;-63
2023/02/16 12:40:17;;;;;;;2.15;0.82;;;;;;;;;;5007157;28;20119;-63
2023/02/16 12:42:44;;;;;;;2.53;1.00;;;;;;;;;;5003966;28;20799;-64
2023/02/16 12:45:14;;;;;;;2.00;0.63;;;;;;;;;;5007286;28;20056;-64
2023/02/16 12:47:46;;;;;;;6.78;0.93;;;;;;;;;;5009135;28;20069;-65
2023/02/16 12:50:24;;;;;;;2.53;0.90;;;;;;;;;;5013954;28;20412;-64
2023/02/16 12:52:51;;;;;;;3.35;0.82;;;;;;;;;;5035645;28;20118;-64
2023/02/16 12:55:20;;;;;;;3.30;1.15;;;;;;;;;;5029612;28;20045;-65
2023/02/16 12:58:03;;;;;;;1.60;0.50;;;;;;;;;;5016231;28;20642;-63
2023/02/16 13:00:35;;;;;;;2.47;0.68;;;;;;;;;;5009373;28;20052;-63
2023/02/16 13:03:31;;;;;;;1.73;0.60;;;;;;;;;;5008845;28;20067;-63
2023/02/16 13:06:01;;;;;;;4.30;1.00;;;;;;;;;;4977994;28;20938;-63
2023/02/16 13:08:37;;;;;;;3.30;0.75;;;;;;;;;;5016458;28;20077;-64
2023/02/16 13:11:23;;;;;;;6.22;1.10;;;;;;;;;;5008912;28;20505;-64
2023/02/16 13:13:52;;;;;;;6.60;1.00;;;;;;;;;;5014858;28;20062;-64
2023/02/16 13:16:22;;;;;;;2.83;0.90;;;;;;;;;;5018351;28;21947;-63
2023/02/16 13:18:50;;;;;;;9.55;1.27;;;;;;;;;;5028616;28;20044;-63
2023/02/16 13:21:17;;;;;;;3.95;1.10;;;;;;;;;;5028497;28;20048;-63
2023/02/16 13:24:02;;;;;;;2.92;0.88;;;;;;;;;;5027152;28;20101;-63
2023/02/16 13:26:32;;;;;;;4.75;1.15;;;;;;;;;;5027105;28;20511;-63
2023/02/16 13:29:02;;;;;;;1.77;0.60;;;;;;;;;;5028780;28;20037;-62
2023/02/16 13:31:47;;;;;;;10.13;1.10;;;;;;;;;;5027668;28;20052;-63
2023/02/16 13:34:13;;;;;;;3.08;0.88;;;;;;;;;;5028120;28;20756;-62
2023/02/16 13:36:58;;;;;;;9.55;1.63;;;;;;;;;;5026360;28;20037;-63
2023/02/16 13:39:25;;;;;;;8.65;1.30;;;;;;;;;;5027721;28;20049;-62
2023/02/16 13:42:10;;;;;;;3.92;1.10;;;;;;;;;;5028462;28;20090;-61
2023/02/16 13:44:37;;;;;;;6.32;1.23;;;;;;;;;;5007476;28;20052;-61
2023/02/16 13:47:04;;;;;;;6.93;0.82;;;;;;;;;;5026235;28;20796;-63
2023/02/16 13:49:37;;;;;;;7.63;1.30;;;;;;;;;;5028602;28;20406;-63
2023/02/16 13:52:05;;;;;;;7.50;1.40;;;;;;;;;;5026583;28;20056;-63
2023/02/16 13:54:42;;;;;;;2.90;1.20;;;;;;;;;;5026962;28;20037;-64
2023/02/16 13:57:34;;;;;;;7.00;0.90;;;;;;;;;;5028246;28;20061;-64
2023/02/16 14:00:04;;;;;;;6.07;1.40;;;;;;;;;;5025945;28;20820;-62
2023/02/16 14:02:49;;;;;;;6.80;1.13;;;;;;;;;;5025548;28;20463;-64
2023/02/16 14:05:22;;;;;;;3.67;0.80;;;;;;;;;;5027640;28;20057;-63
2023/02/16 14:08:08;;;;;;;3.38;1.25;;;;;;;;;;5026566;28;20049;-63
2023/02/16 14:10:56;;;;;;;9.38;1.52;;;;;;;;;;5034121;28;20535;-62
2023/02/16 14:13:27;;;;;;;4.85;1.50;;;;;;;;;;5026258;28;20059;-63
2023/02/16 14:15:54;;;;;;;9.45;1.35;;;;;;;;;;5027003;28;20045;-62
2023/02/16 14:18:32;;;;;;;7.68;1.48;;;;;;;;;;5026723;28;20041;-63
2023/02/16 14:21:06;;;;;;;8.48;1.35;;;;;;;;;;5026983;28;20670;-63
2023/02/16 14:23:34;;;;;;;5.78;1.38;;;;;;;;;;5025384;28;20348;-63
2023/02/16 14:26:02;;;;;;;11.52;1.77;;;;;;;;;;5028316;28;20049;-63
2023/02/16 14:28:31;;;;;;;6.50;1.40;;;;;;;;;;5027285;28;20041;-63
2023/02/16 14:31:00;;;;;;;4.55;1.30;;;;;;;;;;5028354;28;20047;-62
2023/02/16 14:33:46;;;;;;;5.38;1.35;;;;;;;;;;5024980;28;20445;-64
2023/02/16 14:36:18;;;;;;;5.28;1.33;;;;;;;;;;5026650;28;20104;-63
2023/02/16 14:38:49;;;;;;;4.75;1.40;;;;;;;;;;5005600;28;20048;-64
2023/02/16 14:41:24;;;;;;;15.27;1.73;;;;;;;;;;5006991;28;20038;-65
2023/02/16 14:43:54;;;;;;;7.85;1.58;;;;;;;;;;5016882;28;20042;-64
2023/02/16 14:46:21;;;;;;;16.15;1.85;;;;;;;;;;5008005;28;20076;-64
2023/02/16 14:49:06;;;;;;;15.90;1.95;;;;;;;;;;5006291;28;20054;-63
2023/02/16 14:51:51;;;;;;;10.25;2.00;;;;;;;;;;5006308;28;20578;-64
2023/02/16 14:54:36;;;;;;;18.92;2.33;;;;;;;;;;5005235;28;20049;-63
2023/02/16 14:57:11;;;;;;;13.18;1.92;;;;;;;;;;5006162;28;20061;-64
2023/02/16 14:59:38;;;;;;;9.55;1.90;;;;;;;;;;5003752;28;20590;-64
2023/02/16 15:02:31;;;;;;;8.90;2.03;;;;;;;;;;5003800;28;20050;-63
2023/02/16 15:04:57;;;;;;;16.17;1.98;;;;;;;;;;5026677;28;20624;-63
2023/02/16 15:07:26;;;;;;;15.55;2.17;;;;;;;;;;5027348;28;20045;-64
2023/02/16 15:09:57;;;;;;;9.55;1.90;;;;;;;;;;5027153;28;20405;-63
2023/02/16 15:12:31;;;;;;;14.45;2.42;;;;;;;;;;5024553;28;20110;-62
2023/02/16 15:14:57;;;;;;;;;;;;;;;;;;5025604;28;20075;-64
2023/02/16 15:17:27;;;;;;;12.93;1.60;;;;;;;;;;5024686;28;19921;-64
2023/02/16 15:19:56;;;;;;;22.10;2.55;;;;;;;;;;5026198;28;20086;-64
2023/02/16 15:22:24;;;;;;;6.72;1.83;;;;;;;;;;5024255;28;20094;-62
2023/02/16 15:25:02;;;;;;;9.73;1.98;;;;;;;;;;5025711;28;20399;-64
2023/02/16 15:27:31;;;;;;;23.25;2.08;;;;;;;;;;5024917;28;20120;-64
2023/02/16 15:30:16;;;;;;;17.80;2.30;;;;;;;;;;5027857;28;20037;-64
2023/02/16 15:32:51;;;;;;;16.45;2.55;;;;;;;;;;5026371;28;20036;-64
2023/02/16 15:35:28;;;;;;;30.38;2.50;;;;;;;;;;5028007;28;20573;-63
2023/02/16 15:38:09;;;;;;;13.30;1.95;;;;;;;;;;5024559;28;20041;-63
2023/02/16 15:40:36;;;;;;;12.57;2.28;;;;;;;;;;5024158;28;20045;-63